Tiempo atmosférico en la estación meteorológica de Cubillas de Rueda, León (916 m.)



Fecha
DESCASC
Temp. máxima en grados centígrados (hora)
DESCASC
Temp. mínima en grados centígrados (hora)
DESCASC
Temp. media en grados centígrados
DESCASC
Racha de viento máxima en m/sg (hora)
DESCASC
Velocidad máxima media en intervalos de 10 minutos(hora)
DESCASC
Precipitaciones diarias en mm
DESCASC
Precipitaciones de 00:00 a 06:00 en mm
DESCASC
Precipitaciones de 06:00 a 12:00 en mm
DESCASC
Precipitaciones de 12:00 a 18:00 en mm
DESCASC
Precipitaciones de 18:00 a 24:00 en mm
DESCASC
28-02-2021 11.4 (15:30) -3.6 (08:10) 3.9 9.17 (12:50) 5.83 (10:20) 0 0 0 0 0
27-02-2021 16.4 (16:40) -0.4 (23:50) 8 8.06 (19:10) 5 (19:10) 0 0 0 0 0
26-02-2021 14.7 (15:10) 3.4 (23:50) 9 7.78 (16:40) 4.72 (16:30) 0 0 0 0 0
25-02-2021 10.8 (16:20) 3.7 (00:00) 7.3 6.39 (12:10) 3.89 (12:10) 0 0 0 0 0
24-02-2021 -- (--) -- (--) -- 7.22 (15:40) 4.44 (15:40) -- 0 -- 0 0
23-02-2021 11.7 (16:30) -4.2 (-00:0) 3.8 6.39 (14:20) 3.89 (15:10) 0 0 0 0 0
22-02-2021 10.1 (15:40) -1.5 (-00:0) 4.3 6.11 (16:00) 3.61 (16:30) 0.2 0.2 0 0 0
21-02-2021 9.7 (12:00) 1.7 (00:00) 5.7 11.67 (09:30) 6.94 (05:50) 20.2 0 0 10.6 9.6
20-02-2021 10.8 (12:30) 5 (00:00) 7.9 14.72 (12:30) 7.5 (13:30) 0.4 0 0 0.4 0
19-02-2021 11.7 (15:00) 6.5 (00:00) 9.1 11.11 (15:20) 6.11 (15:20) 0 0 0 0 0
18-02-2021 9.9 (17:00) 6.3 (00:00) 8.1 14.72 (14:10) 7.22 (13:40) 0.2 0 0.2 0 0
17-02-2021 11 (15:40) 1.3 (00:00) 6.1 10.28 (22:30) 5.28 (22:10) 0.2 0 0.2 0 0
16-02-2021 10.3 (14:50) 1.7 (00:00) 6 10.83 (12:30) 6.39 (12:30) 4 0 0 3 1
15-02-2021 14.7 (15:50) 2.6 (00:00) 8.6 6.39 (15:30) 4.72 (08:00) 0 0 0 0 0
14-02-2021 11 (16:50) -1.1 (-00:0) 4.9 4.44 (20:00) 2.5 (20:00) 0 0 0 0 0
13-02-2021 12.4 (17:30) -1 (-00:0) 5.7 7.22 (18:00) 4.17 (18:00) 0 0 0 0 0
12-02-2021 12.4 (15:00) 0.8 (00:00) 6.6 12.78 (02:00) 6.94 (13:40) 2.8 2.6 0.2 0 0
11-02-2021 10.9 (16:00) 2.4 (00:00) 6.6 8.33 (23:59) 4.72 (23:59) 2.6 0 0.2 0 2.4
10-02-2021 9.1 (16:10) -0.4 (00:00) 4.4 8.61 (02:50) 5 (13:00) 2.6 2.4 0 0.2 0
09-02-2021 5.4 (10:10) 1.5 (00:00) 3.5 15 (10:50) 8.33 (11:20) 7.4 1.8 5 0.4 0.2
08-02-2021 6.4 (16:30) 1.4 (00:00) 3.9 10 (16:40) 5.83 (17:40) 4.4 3 0.2 1.2 0
07-02-2021 3.1 (15:20) -5.2 (-00:0) -1 6.94 (13:10) 3.61 (13:10) 1.4 0 0 0.2 1.2
06-02-2021 7.1 (16:10) -1.5 (-00:0) 2.8 9.17 (13:20) 5.28 (13:20) 5.2 3.2 2 0 0
05-02-2021 7.9 (14:40) 4.2 (00:00) 6 7.22 (11:40) 4.44 (11:40) 8.6 0.6 3.8 3.2 1
04-02-2021 6.7 (12:00) 4 (00:00) 5.3 6.94 (00:40) 3.33 (00:10) 5 0 0 2.6 2.4
03-02-2021 11.6 (15:40) 5.5 (00:00) 8.6 13.61 (03:40) 6.67 (03:30) 2.8 2.2 0.6 0 0
02-02-2021 9 (15:10) 6.9 (00:00) 8 10.28 (18:50) 6.11 (22:20) 4 0 0 2.8 1.2
01-02-2021 12.2 (14:20) 6.5 (00:00) 9.3 14.44 (01:40) 8.89 (16:30) 0 0 0 0 0
31-01-2021 13.4 (17:20) 2.6 (00:00) 8 18.89 (15:30) 9.44 (21:30) 0 0 0 0 0

Gráficas

Temp. máximas Temp. mínimas Temp. medias Precipitaciones Rachas de viento máximas Velocidades máximas media en intervalos de 10 minutos

Datos horarios

Fecha y hora oficial Temperatura (ºC) Velocidad del viento (km/h) Dirección del viento Racha (km/h) Dirección de racha Precipitación (mm) Presión (hPa) Tendencia (hPa) Humedad (%)
2021-03-01 23:00:00 7 9 Sudeste 18 Sudeste 0.2 -- -- 91
2021-03-01 22:00:00 7.3 10 Sudeste 20 Sur 0 -- -- 88
2021-03-01 21:00:00 7.7 8 Sudeste 18 Sur 0 -- -- 86
2021-03-01 20:00:00 8.2 9 Sudeste 22 Sudeste 0 -- -- 84
2021-03-01 19:00:00 8.5 10 Sudeste 16 Sur 0 -- -- 83
2021-03-01 18:00:00 8.8 5 Sudeste 12 Sudeste 0 -- -- 86
2021-03-01 17:00:00 8.6 4 Sudeste 10 Sudeste 0.6 -- -- 89
2021-03-01 16:00:00 8 6 Sudeste 19 Sudeste 1.4 -- -- 89
2021-03-01 15:00:00 7.7 6 Sudeste 21 Sudeste 0.8 -- -- 89
2021-03-01 14:00:00 6.7 15 Sudeste 23 Sudeste 1 -- -- 92
2021-03-01 13:00:00 6.4 12 Sudeste 19 Sudeste 0 -- -- 91
2021-03-01 12:00:00 5.2 6 Sudeste 13 Este 1.6 -- -- 93
2021-03-01 11:00:00 5.2 5 Sur 20 Este 1.6 -- -- 93
2021-03-01 10:00:00 4.4 11 Sudeste 31 Sudeste 1 -- -- 92
2021-03-01 09:00:00 4.5 14 Este 25 Este 0.2 -- -- 93
2021-03-01 08:00:00 4.8 6 Este 18 Sudeste 0.8 -- -- 93
2021-03-01 07:00:00 5 12 Sudeste 35 Sudeste 1.4 -- -- 94
2021-03-01 06:00:00 5 24 Sudeste 40 Sudeste 1.2 -- -- 93
2021-03-01 05:00:00 5 19 Sudeste 34 Sudeste 0.4 -- -- 91
2021-03-01 04:00:00 4.9 16 Sudeste 24 Sudeste 0 -- -- 91
2021-03-01 03:00:00 2.8 8 Este 15 Sudeste 0 -- -- 95
2021-03-01 02:00:00 1.4 5 Este 9 Este 0 -- -- 95
2021-03-01 01:00:00 2.5 3 Nordeste 18 Este 0 -- -- 89
2021-03-01 00:00:00 3.4 12 Este 21 Este 0 -- -- 89
2021-02-28 23:00:00 2.1 0 Calma 8 Nordeste 0 -- -- 88
2021-02-28 22:00:00 1.3 4 Este 8 Este 0 -- -- 86
2021-02-28 21:00:00 3.6 5 Nordeste 10 Este 0 -- -- 82
2021-02-28 20:00:00 5.2 5 Este 22 Sudeste 0 -- -- 74
2021-02-28 19:00:00 7.4 10 Sudeste 19 Sudeste 0 -- -- 66
2021-02-28 18:00:00 9.6 10 Sudeste 26 Este 0 -- -- 57
2021-02-28 17:00:00 10.4 17 Sudeste 32 Sudeste 0 -- -- 54
2021-02-28 16:00:00 10.9 15 Sudeste 29 Sudeste 0 -- -- 51
2021-02-28 15:00:00 11.2 15 Sudeste 31 Sudeste 0 -- -- 49
2021-02-28 14:00:00 10.7 13 Sudeste 28 Este 0 -- -- 51
2021-02-28 13:00:00 9.6 15 Sudeste 33 Sudeste 0 -- -- 57
2021-02-28 12:00:00 8.9 9 Este 17 Este 0 -- -- 47
2021-02-28 11:00:00 7.1 12 Este 32 Este 0 -- -- 53
2021-02-28 10:00:00 3.7 9 Nordeste 19 Este 0 -- -- 60
2021-02-28 09:00:00 0.4 10 Nordeste 15 Nordeste 0 -- -- 67
2021-02-28 08:00:00 -3.5 5 Este 8 Nordeste 0 -- -- 83
2021-02-28 07:00:00 -2.6 5 Nordeste 10 Nordeste 0 -- -- 84
2021-02-28 06:00:00 -1.4 4 Nordeste 8 Este 0 -- -- 79
2021-02-28 05:00:00 -0.8 5 Nordeste 12 Norte 0 -- -- 79
2021-02-28 04:00:00 0.4 6 Nordeste 13 Este 0 -- -- 76
2021-02-28 03:00:00 -0.1 3 Nordeste 9 Este 0 -- -- 68
2021-02-28 02:00:00 1.9 4 Este 13 Sudeste 0 -- -- 60
2021-02-28 01:00:00 -0.4 5 Este 8 Este 0 -- -- 70
2021-02-28 00:00:00 -0.3 2 Este 6 Este 0 -- -- 72
2021-02-27 23:00:00 1.3 0 Calma 12 Este 0 -- -- 60
2021-02-27 22:00:00 5 10 Este 17 Nordeste 0 -- -- 54
2021-02-27 21:00:00 7.3 8 Nordeste 14 Este 0 -- -- 48
2021-02-27 20:00:00 8.8 3 Norte 29 Sudeste 0 -- -- 46
2021-02-27 19:00:00 11.3 15 Sudeste 28 Sudeste 0 -- -- 43
2021-02-27 18:00:00 14.2 14 Este 24 Sudeste 0 -- -- 41
2021-02-27 17:00:00 15.6 14 Sur 23 Sur 0 -- -- 41
2021-02-27 16:00:00 16.1 10 Oeste 21 Sur 0 -- -- 46
2021-02-27 15:00:00 15.5 10 Sudeste 20 Sur 0 -- -- 49
2021-02-27 14:00:00 14.5 5 Este 23 Este 0 -- -- 54
2021-02-27 13:00:00 13.4 9 Sur 19 Sudoeste 0 -- -- 57
2021-02-27 12:00:00 11.1 6 Oeste 10 Oeste 0 -- -- 62
2021-02-27 11:00:00 8.3 4 Oeste 8 Oeste 0 -- -- 69
2021-02-27 10:00:00 4.4 5 Nordeste 8 Norte 0 -- -- 84
2021-02-27 09:00:00 1.3 2 Nordeste 11 Nordeste 0 -- -- 91
2021-02-27 08:00:00 -0.1 3 Nordeste 5 Nordeste 0 -- -- 92
2021-02-27 07:00:00 0.5 4 Nordeste 6 Nordeste 0 -- -- 94
2021-02-27 06:00:00 0.6 4 Nordeste 7 Nordeste 0 -- -- 89
2021-02-27 05:00:00 0.9 7 Nordeste 9 Nordeste 0 -- -- 93
2021-02-27 04:00:00 0.9 5 Nordeste 8 Nordeste 0 -- -- 92
2021-02-27 03:00:00 1.3 0 Calma 4 Este 0 -- -- 91
2021-02-27 02:00:00 1.7 3 Este 5 Nordeste 0 -- -- 92
2021-02-27 01:00:00 2.9 3 Nordeste 6 Norte 0 -- -- 89
2021-02-27 00:00:00 3.5 0 Calma 6 Este 0 -- -- 91
2021-02-26 23:00:00 4.3 3 Nordeste 10 Este 0 -- -- 88
2021-02-26 22:00:00 4.7 8 Este 9 Este 0 -- -- 83
2021-02-26 21:00:00 7.8 6 Nordeste 12 Nordeste 0 -- -- 77
2021-02-26 20:00:00 8.1 0 Calma 8 Este 0 -- -- 75
2021-02-26 19:00:00 10.7 4 Sudeste 23 Sudeste 0 -- -- 65
2021-02-26 18:00:00 12.3 12 Sudeste 28 Sudeste 0 -- -- 59
2021-02-26 17:00:00 13.8 15 Sudeste 28 Este 0 -- -- 38
2021-02-26 16:00:00 14.4 14 Sudeste 26 Sudeste 0 -- -- 39
2021-02-26 15:00:00 14.6 12 Sudeste 24 Sudeste 0 -- -- 51
2021-02-26 14:00:00 14.4 10 Este 27 Este 0 -- -- 54
2021-02-26 13:00:00 13.3 5 Este 17 Este 0 -- -- 63
2021-02-26 12:00:00 11.4 8 Este 18 Este 0 -- -- 66
2021-02-26 11:00:00 9.6 12 Este 19 Este 0 -- -- 72
2021-02-26 10:00:00 7.5 7 Este 15 Nordeste 0 -- -- 80
2021-02-26 09:00:00 5 10 Nordeste 13 Nordeste 0 -- -- 86
2021-02-26 08:00:00 4.5 7 Nordeste 13 Nordeste 0 -- -- 85
2021-02-26 07:00:00 4.8 10 Este 13 Nordeste 0 -- -- 87
2021-02-26 06:00:00 5.6 8 Este 13 Este 0 -- -- 84
2021-02-26 05:00:00 5.7 7 Nordeste 12 Nordeste 0 -- -- 87
2021-02-26 04:00:00 6 8 Nordeste 16 Norte 0 -- -- 84
2021-02-26 03:00:00 5.4 7 Nordeste 10 Este 0 -- -- 88
2021-02-26 02:00:00 5.4 6 Este 9 Nordeste 0 -- -- 87
2021-02-26 01:00:00 6.4 6 Nordeste 12 Nordeste 0 -- -- 84
2021-02-26 00:00:00 6.3 10 Nordeste 12 Nordeste 0 -- -- 84
2021-02-25 23:00:00 6.2 8 Nordeste 15 Nordeste 0 -- -- 85
2021-02-25 22:00:00 6.8 8 Nordeste 14 Este 0 -- -- 84
2021-02-25 21:00:00 7 9 Nordeste 13 Norte 0 -- -- 83
2021-02-25 20:00:00 7 6 Este 8 Sudeste 0 -- -- 84
2021-02-25 19:00:00 9.5 4 Sudeste 11 Este 0 -- -- 75
2021-02-25 18:00:00 10.6 5 Este 14 Sudeste 0 -- -- 71
2021-02-25 17:00:00 10.8 8 Sudeste 16 Sudeste 0 -- -- 70
2021-02-25 16:00:00 10.6 5 Sudeste 14 Sudeste 0 -- -- 69
2021-02-25 15:00:00 10 6 Sudeste 13 Sudeste 0 -- -- 72
2021-02-25 14:00:00 9 6 Sudeste 17 Sudeste 0 -- -- 74
2021-02-25 13:00:00 8.9 11 Sudeste 23 Sudeste 0 -- -- 74
2021-02-25 12:00:00 7.8 11 Sudeste 21 Sudeste 0 -- -- 78
2021-02-25 11:00:00 6.9 6 Este 14 Este 0 -- -- 85
2021-02-25 10:00:00 6.4 5 Este 10 Este 0 -- -- 87
2021-02-25 09:00:00 5.3 5 Nordeste 10 Este 0 -- -- 90
2021-02-25 08:00:00 3.7 3 Este 9 Este 0 -- -- 90
2021-02-25 07:00:00 4.8 4 Este 8 Este 0 -- -- 88
2021-02-25 06:00:00 5.3 3 Nordeste 6 Nordeste 0 -- -- 90
2021-02-25 05:00:00 6.1 2 Este 6 Nordeste 0 -- -- 88
2021-02-25 04:00:00 6.2 4 Nordeste 7 Nordeste 0 -- -- 90
2021-02-25 03:00:00 6.8 0 Calma 6 Este 0 -- -- 89
2021-02-25 02:00:00 6.7 5 Este 7 Este 0 -- -- 89
2021-02-25 01:00:00 6.9 0 Calma 12 Sudeste 0 -- -- 87
2021-02-25 00:00:00 7 5 Sur 10 Sur 0 -- -- 86
2021-02-24 23:00:00 8.1 4 Sur 13 Sudoeste 0 -- -- 81
2021-02-24 22:00:00 9 3 Sur 15 Sudeste 0 -- -- 77
2021-02-24 21:00:00 8.1 4 Sudeste 10 Sur 0 -- -- 81
2021-02-24 20:00:00 8.7 6 Sudeste 9 Sur 0 -- -- 76
2021-02-24 19:00:00 10.7 4 Sur 15 Sudoeste 0 -- -- 69
2021-02-24 18:00:00 12.8 9 Sur 22 Sur 0 -- -- 57
2021-02-24 17:00:00 13.7 13 Sudoeste 26 Sur 0 -- -- 56
2021-02-24 16:00:00 12.8 13 Sur 26 Sur 0 -- -- 59
2021-02-24 15:00:00 12.6 10 Sur 21 Sudeste 0 -- -- 61
2021-02-24 14:00:00 11.7 11 Sur 25 Sur 0 -- -- 63
2021-02-24 13:00:00 10.8 9 Sur 19 Sur 0 -- -- 63
2021-02-24 12:00:00 9.4 6 Sur -- -- -- -- -- 69
2021-02-24 11:00:00 7.4 0 Calma -- -- -- -- -- 80
2021-02-24 10:00:00 3.5 4 Nordeste 7 Nordeste 0 -- -- 93
2021-02-24 09:00:00 -1.2 3 Nordeste 5 Nordeste 0 -- -- 97
2021-02-24 08:00:00 -2.5 4 Nordeste 9 Nordeste 0 -- -- 94
2021-02-24 07:00:00 -2.4 3 Este 6 Este 0 -- -- 94
2021-02-24 06:00:00 -1.7 5 Este 6 Nordeste 0 -- -- 93
2021-02-24 05:00:00 -1.2 4 Nordeste 6 Norte 0 -- -- 94
2021-02-24 04:00:00 -1.1 4 Nordeste 8 Este 0 -- -- 94
2021-02-24 03:00:00 -0.6 3 Norte 6 Este 0 -- -- 92
2021-02-24 02:00:00 -0.7 5 Este 7 Este 0 -- -- 90
2021-02-24 01:00:00 -0.6 4 Nordeste 7 Nordeste 0 -- -- 87
2021-02-24 00:00:00 -0.1 4 Nordeste 7 Nordeste 0 -- -- 83
2021-02-23 23:00:00 -0.3 3 Nordeste 6 Nordeste 0 -- -- 79
2021-02-23 22:00:00 0.6 4 Nordeste 8 Nordeste 0 -- -- 77
2021-02-23 21:00:00 2.2 0 Calma 6 Sudeste 0 -- -- 74
2021-02-23 20:00:00 4 5 Sudeste 7 Sur 0 -- -- 66
2021-02-23 19:00:00 9.5 5 Sur 13 Sur 0 -- -- 47
2021-02-23 18:00:00 11 10 Sur 20 Sur 0 -- -- 44
2021-02-23 17:00:00 11.4 11 Sur 21 Sur 0 -- -- 41
2021-02-23 16:00:00 11.3 10 Sur 21 Sur 0 -- -- 45
2021-02-23 15:00:00 10.9 10 Sur 23 Sur 0 -- -- 43
2021-02-23 14:00:00 9.9 12 Sudoeste 20 Sudoeste 0 -- -- 50
2021-02-23 13:00:00 9.4 8 Sur 19 Sur 0 -- -- 52
2021-02-23 12:00:00 8.2 6 Sudoeste 18 Sur 0 -- -- 58
2021-02-23 11:00:00 6 5 Sur 10 Sudoeste 0 -- -- 67
2021-02-23 10:00:00 1.4 3 Nordeste 6 Nordeste 0 -- -- 87
2021-02-23 09:00:00 -2.3 4 Nordeste 6 Nordeste 0 -- -- 95
2021-02-23 08:00:00 -4 4 Nordeste 5 Nordeste 0 -- -- 93
2021-02-23 07:00:00 -3.5 4 Nordeste 7 Este 0 -- -- 93
2021-02-23 06:00:00 -4.2 4 Este 6 Este 0 -- -- 90
2021-02-23 05:00:00 -3.8 3 Este 5 Nordeste 0 -- -- 92
2021-02-23 04:00:00 -3.1 4 Este 8 Nordeste 0 -- -- 89
2021-02-23 03:00:00 -2.9 2 Nordeste 6 Este 0 -- -- 93
2021-02-23 02:00:00 -2.5 3 Nordeste 6 Nordeste 0 -- -- 92
2021-02-23 01:00:00 -2.4 5 Este 8 Este 0 -- -- 90
2021-02-23 00:00:00 -1.5 3 Este 7 Nordeste 0 -- -- 88
2021-02-22 23:00:00 -0.5 2 Nordeste 8 Nordeste 0 -- -- 85
2021-02-22 22:00:00 0.9 2 Este 8 Sudoeste 0 -- -- 80
2021-02-22 21:00:00 3.6 3 Sur 13 Sur 0 -- -- 70
2021-02-22 20:00:00 5.1 8 Sur 12 Sur 0 -- -- 56
2021-02-22 19:00:00 7.3 5 Sudoeste 11 Sudoeste 0 -- -- 50
2021-02-22 18:00:00 9.8 5 Sudoeste 15 Sudoeste 0 -- -- 43
2021-02-22 17:00:00 9.8 12 Sudoeste 21 Sudoeste 0 -- -- 43
2021-02-22 16:00:00 10 13 Sudoeste 22 Sudoeste 0 -- -- 48
2021-02-22 15:00:00 9.6 5 Sur 15 Oeste 0 -- -- 56
2021-02-22 14:00:00 8.9 4 Oeste 13 Noroeste 0 -- -- 55
2021-02-22 13:00:00 7.2 3 Nordeste 15 Nordeste 0 -- -- 62
2021-02-22 12:00:00 6.6 3 Norte 14 Noroeste 0 -- -- 68
2021-02-22 11:00:00 5.4 9 Noroeste 16 Noroeste 0 -- -- 72
2021-02-22 10:00:00 3.7 2 Norte 10 Noroeste 0 -- -- 82
2021-02-22 09:00:00 1 0 Calma 15 Noroeste 0 -- -- 90
2021-02-22 08:00:00 0.9 6 Noroeste 13 Noroeste 0 -- -- 87
2021-02-22 07:00:00 1.7 7 Noroeste 13 Noroeste 0 -- -- 87
2021-02-22 06:00:00 1.9 3 Noroeste 17 Oeste 0 -- -- 90
2021-02-22 05:00:00 2 5 Oeste 10 Sudoeste 0 -- -- 93
2021-02-22 04:00:00 2.3 6 Sudoeste 10 Sudoeste 0 -- -- 95
2021-02-22 03:00:00 2.4 4 Oeste 9 Oeste 0 -- -- 95
2021-02-22 02:00:00 2.5 3 Sudoeste 9 Oeste 0 -- -- 95
2021-02-22 01:00:00 2.6 4 Norte 14 Norte 0.2 -- -- 93
2021-02-22 00:00:00 2.4 9 Norte 14 Noroeste 0.4 -- -- 94
2021-02-21 23:00:00 2.2 9 Norte 15 Noroeste 0.6 -- -- 94
2021-02-21 22:00:00 1.8 10 Noroeste 20 Norte 1.2 -- -- 95
2021-02-21 21:00:00 1.9 11 Norte 27 Norte 1.6 -- -- 94
2021-02-21 20:00:00 3.4 9 Norte 21 Oeste 2.6 -- -- 93
2021-02-21 19:00:00 5.9 2 Este 3 Este 3.2 -- -- 93
2021-02-21 18:00:00 6.4 0 Calma 4 Sur 2.2 -- -- 92
2021-02-21 17:00:00 6.4 0 Calma 11 Noroeste 2.6 -- -- 94
2021-02-21 16:00:00 6.6 5 Oeste 10 Sudoeste 3.2 -- -- 94
2021-02-21 15:00:00 7.3 3 Oeste 17 Sudeste 2.6 -- -- 91
2021-02-21 14:00:00 8.8 14 Sudeste 24 Sudeste 0 -- -- 72
2021-02-21 13:00:00 9.4 16 Sudeste 33 Sur 0 -- -- 67
2021-02-21 12:00:00 9.7 21 Sudeste 36 Sudeste 0 -- -- 64
2021-02-21 11:00:00 9.2 18 Sudeste 36 Sudeste 0 -- -- 64
2021-02-21 10:00:00 8.9 21 Sudeste 42 Sudeste 0 -- -- 65
2021-02-21 09:00:00 8 23 Sudeste 37 Sudeste 0 -- -- 69
2021-02-21 08:00:00 8.2 23 Sudeste 39 Sudeste 0 -- -- 69
2021-02-21 07:00:00 8.2 24 Sudeste 36 Sudeste 0 -- -- 68
2021-02-21 06:00:00 8.1 24 Sudeste 39 Sudeste 0 -- -- 65
2021-02-21 05:00:00 8.1 22 Sudeste 36 Sudeste 0 -- -- 58
2021-02-21 04:00:00 7.9 18 Sudeste 26 Sudeste 0 -- -- 55
2021-02-21 03:00:00 8.3 17 Sudeste 27 Sudeste 0 -- -- 52
2021-02-21 02:00:00 8.9 18 Sudeste 28 Sudeste 0 -- -- 49
2021-02-21 01:00:00 9.1 16 Sudeste 26 Sudeste 0 -- -- 51
2021-02-21 00:00:00 9.1 15 Sudeste 22 Sudeste 0 -- -- 54
2021-02-20 23:00:00 9.6 15 Sudeste 24 Sudeste 0 -- -- 52
2021-02-20 22:00:00 8.2 8 Sudeste 14 Sudeste 0 -- -- 67
2021-02-20 21:00:00 7.9 6 Este 17 Oeste 0 -- -- 79
2021-02-20 20:00:00 9.8 8 Sur 20 Sur 0 -- -- 65
2021-02-20 19:00:00 9.9 11 Sur 18 Sur 0 -- -- 63
2021-02-20 18:00:00 8.9 0 Calma 23 Sudoeste 0 -- -- 79
2021-02-20 17:00:00 9 16 Sudoeste 40 Sur 0.4 -- -- 69
2021-02-20 16:00:00 9.9 9 Sudoeste 31 Sudoeste 0 -- -- 62
2021-02-20 15:00:00 10.5 21 Sudoeste 44 Sudoeste 0 -- -- 59
2021-02-20 14:00:00 9.8 23 Sudoeste 49 Sudoeste 0 -- -- 62
2021-02-20 13:00:00 10.3 23 Sudoeste 53 Sudoeste 0 -- -- 61
2021-02-20 12:00:00 9.3 19 Sudoeste 36 Sur 0 -- -- 65
2021-02-20 11:00:00 7.6 10 Sur 19 Sur 0 -- -- 71
2021-02-20 10:00:00 6.7 10 Sur 24 Sur 0 -- -- 72
2021-02-20 09:00:00 5.2 11 Sur 22 Sudeste 0 -- -- 74
2021-02-20 08:00:00 5.5 9 Sudeste 21 Sur 0 -- -- 73
2021-02-20 07:00:00 6 12 Sur 27 Sur 0 -- -- 77
2021-02-20 06:00:00 6.2 18 Sur 32 Sur 0 -- -- 78
2021-02-20 05:00:00 6.6 18 Sur 36 Sur 0 -- -- 79
2021-02-20 04:00:00 6.5 17 Sur 31 Sudoeste 0 -- -- 77
2021-02-20 03:00:00 7 19 Sur 36 Sur 0 -- -- 82
2021-02-20 02:00:00 7.1 17 Sur 31 Sur 0 -- -- 82
2021-02-20 01:00:00 7.3 17 Sur 33 Sur 0 -- -- 80
2021-02-20 00:00:00 7 19 Sur 34 Sur 0 -- -- 79
2021-02-19 23:00:00 7.9 18 Sur 33 Sudoeste 0 -- -- 76
2021-02-19 22:00:00 8.5 14 Sur 27 Sur 0 -- -- 72
2021-02-19 21:00:00 8.4 10 Sur 31 Sur 0 -- -- 70
2021-02-19 20:00:00 8.5 14 Sur 33 Sudoeste 0 -- -- 66
2021-02-19 19:00:00 8.9 14 Sur 27 Sur 0 -- -- 62
2021-02-19 18:00:00 10 13 Sur 31 Sudoeste 0 -- -- 61
2021-02-19 17:00:00 10.6 18 Sudoeste 34 Sudoeste 0 -- -- 55
2021-02-19 16:00:00 10.9 19 Sudoeste 40 Sur 0 -- -- 56
2021-02-19 15:00:00 11.7 19 Sudoeste 39 Sudoeste 0 -- -- 59
2021-02-19 14:00:00 10.7 19 Sur 39 Sur 0 -- -- 60
2021-02-19 13:00:00 9.9 14 Sudoeste 30 Sur 0 -- -- 71
2021-02-19 12:00:00 8.3 15 Sur 27 Sur 0 -- -- 88
2021-02-19 11:00:00 7.7 17 Sur 32 Sur 0 -- -- 88
2021-02-19 10:00:00 7.2 13 Sur 26 Sudoeste 0 -- -- 95
2021-02-19 09:00:00 6.9 13 Sur 24 Sur 0 -- -- 97
2021-02-19 08:00:00 7 11 Sur 25 Sur 0 -- -- 96
2021-02-19 07:00:00 6.9 14 Sur 25 Sur 0 -- -- 96
2021-02-19 06:00:00 6.7 10 Sur 17 Sudoeste 0 -- -- 96
2021-02-19 05:00:00 6.6 9 Sur 17 Sur 0 -- -- 96
2021-02-19 04:00:00 6.5 6 Sur 21 Sur 0 -- -- 97
2021-02-19 03:00:00 6.5 9 Sur 23 Sur -- -- -- 96
2021-02-19 02:00:00 7.1 12 Sur 22 Sur 0 -- -- 96
2021-02-19 01:00:00 7.2 8 Sudoeste 19 Sudoeste 0 -- -- 96
2021-02-19 00:00:00 7 10 Sur 18 Sudoeste 0 -- -- 96
2021-02-18 23:00:00 7 11 Sur 19 Sur 0 -- -- 93
2021-02-18 22:00:00 6.8 7 Sudoeste 15 Sudoeste 0 -- -- 91
2021-02-18 21:00:00 7.4 7 Sudoeste 20 Sudoeste 0 -- -- 89
2021-02-18 20:00:00 8 10 Sudoeste 23 Sudoeste 0 -- -- 87
2021-02-18 19:00:00 8.2 11 Sudoeste 21 Sudoeste 0 -- -- 86
2021-02-18 18:00:00 8.6 6 Oeste 35 Sudoeste 0 -- -- 83
2021-02-18 17:00:00 9.9 19 Sudoeste 37 Sudoeste 0 -- -- 78
2021-02-18 16:00:00 8.2 8 Noroeste 34 Oeste 0 -- -- 89
2021-02-18 15:00:00 9.1 19 Sudoeste 53 Sudoeste 0 -- -- 83
2021-02-18 14:00:00 9.3 26 Sudoeste 48 Sudoeste 0 -- -- 81
2021-02-18 13:00:00 8.9 22 Sudoeste 40 Sudoeste 0 -- -- 81
2021-02-18 12:00:00 7.6 16 Sudoeste 36 Sudoeste 0.2 -- -- 90
2021-02-18 11:00:00 6.8 19 Sudoeste 41 Sudoeste 0 -- -- 92
2021-02-18 10:00:00 6.6 20 Sudoeste 40 Sudoeste 0 -- -- 92
2021-02-18 09:00:00 6.4 20 Sur 37 Sur 0 -- -- 94
2021-02-18 08:00:00 6.3 20 Sur 47 Sur 0 -- -- 95
2021-02-18 07:00:00 6.5 21 Sur 41 Sur 0 -- -- 95
2021-02-18 06:00:00 6.8 18 Sur 33 Sur 0 -- -- 95
2021-02-18 05:00:00 6.8 17 Sur 33 Sur 0 -- -- 95
2021-02-18 04:00:00 7.1 19 Sur 37 Sur 0 -- -- 94
2021-02-18 03:00:00 7.3 19 Sur 38 Sudoeste 0 -- -- 93
2021-02-18 02:00:00 7.7 15 Sudoeste 32 Sudoeste 0 -- -- 92
2021-02-18 01:00:00 8.4 13 Sudoeste 36 Sudoeste 0 -- -- 89
2021-02-18 00:00:00 8.2 16 Sudoeste 34 Sudoeste 0 -- -- 90
2021-02-17 23:00:00 8.5 18 Sur 37 Sur 0 -- -- 89
2021-02-17 22:00:00 8.5 18 Sur 31 Sur 0 -- -- 92
2021-02-17 21:00:00 8.2 4 Sur 15 Sudoeste 0 -- -- 93
2021-02-17 20:00:00 8.7 8 Sur 23 Sur 0 -- -- 91
2021-02-17 19:00:00 8.9 9 Sur 22 Sur 0 -- -- 88
2021-02-17 18:00:00 9 12 Sudoeste 27 Sudoeste 0 -- -- 91
2021-02-17 17:00:00 9.7 15 Sudoeste 32 Sur 0 -- -- 83
2021-02-17 16:00:00 11 13 Sudoeste 34 Sudoeste 0 -- -- 75
2021-02-17 15:00:00 9.9 10 Sudoeste 25 Sudoeste 0 -- -- 82
2021-02-17 14:00:00 9.3 14 Sudoeste 28 Sudoeste 0 -- -- 85
2021-02-17 13:00:00 8.5 10 Sudoeste 19 Sudoeste 0 -- -- 96
2021-02-17 12:00:00 6.9 4 Oeste 9 Oeste 0 -- -- 99
2021-02-17 11:00:00 6.3 4 Sudoeste 17 Sudoeste 0 -- -- 99
2021-02-17 10:00:00 5 2 Norte 5 Oeste 0.2 -- -- 99
2021-02-17 09:00:00 4.8 3 Sudeste 5 Sudeste 0 -- -- 99
2021-02-17 08:00:00 4.1 0 Calma 4 Norte 0 -- -- 99
2021-02-17 07:00:00 3.7 0 Calma 3 Sur 0 -- -- 99
2021-02-17 06:00:00 3.2 3 Sudeste 5 Este 0 -- -- 98
2021-02-17 05:00:00 2.1 4 Este 8 Este 0 -- -- 98
2021-02-17 04:00:00 1.3 4 Este 6 Este 0 -- -- 97
2021-02-17 03:00:00 2.3 4 Este 6 Nordeste 0 -- -- 96
2021-02-17 02:00:00 3.8 0 Calma 7 Sudoeste 0 -- -- 96
2021-02-17 01:00:00 3.1 3 Sudoeste 6 Sudoeste 0 -- -- 95
2021-02-17 00:00:00 4 2 Sudoeste 4 Sudeste 0.2 -- -- 98
2021-02-16 23:00:00 4.3 3 Sudeste 8 Sur 0 -- -- 96
2021-02-16 22:00:00 5.4 2 Sudoeste 9 Oeste 0 -- -- 95
2021-02-16 21:00:00 6.1 6 Sur 15 Sur 0.2 -- -- 94
2021-02-16 20:00:00 7.3 6 Sur 12 Sur 0.6 -- -- 94
2021-02-16 19:00:00 7.8 3 Sur 8 Sur 0 -- -- 90
2021-02-16 18:00:00 8.7 3 Sudoeste 10 Sudoeste 0 -- -- 89
2021-02-16 17:00:00 8.3 4 Oeste 17 Noroeste 0.6 -- -- 93
2021-02-16 16:00:00 7.9 13 Noroeste 33 Sudoeste 2.4 -- -- 91
2021-02-16 15:00:00 10.2 21 Sudoeste 36 Sudoeste 0 -- -- 77
2021-02-16 14:00:00 9 17 Sudoeste 34 Sudoeste 0 -- -- 83
2021-02-16 13:00:00 8 20 Sudoeste 39 Sudoeste 0 -- -- 86
2021-02-16 12:00:00 7.9 18 Sudoeste 32 Sudoeste 0 -- -- 84
2021-02-16 11:00:00 7.9 17 Sudoeste 36 Sur 0 -- -- 82
2021-02-16 10:00:00 6.7 13 Sudoeste 24 Sudoeste 0 -- -- 84
2021-02-16 09:00:00 4.9 9 Sur 15 Sur 0 -- -- 89
2021-02-16 08:00:00 4.8 4 Sur 15 Sur 0 -- -- 87
2021-02-16 07:00:00 5.8 12 Sur 26 Sur 0 -- -- 87
2021-02-16 06:00:00 1.7 3 Nordeste 7 Nordeste 0 -- -- 94
2021-02-16 05:00:00 2.5 3 Noroeste 5 Este 0 -- -- 94
2021-02-16 04:00:00 3.3 5 Nordeste 8 Nordeste 0 -- -- 93
2021-02-16 03:00:00 3.3 3 Nordeste 7 Este 0 -- -- 91
2021-02-16 02:00:00 4.2 0 Calma 6 Sudeste 0 -- -- 90
2021-02-16 01:00:00 5.7 0 Calma 7 Sudeste 0 -- -- 87
2021-02-16 00:00:00 6.5 8 Sudeste 18 Sudeste 0 -- -- 84
2021-02-15 23:00:00 5.1 3 Nordeste 8 Nordeste 0 -- -- 82
2021-02-15 22:00:00 8.1 7 Sudeste 15 Sudeste 0 -- -- 75
2021-02-15 21:00:00 7.6 8 Sudeste 13 Sudeste 0 -- -- 78
2021-02-15 20:00:00 9.8 11 Sudeste 15 Sudeste 0 -- -- 71
2021-02-15 19:00:00 11 6 Sudeste 17 Sudeste 0 -- -- 66
2021-02-15 18:00:00 13.1 10 Sur 17 Sur 0 -- -- 56
2021-02-15 17:00:00 13.7 8 Sur 20 Sudoeste 0 -- -- 57
2021-02-15 16:00:00 14.7 10 Sur 23 Sudoeste 0 -- -- 54
2021-02-15 15:00:00 14.2 9 Sudoeste 20 Sur 0 -- -- 54
2021-02-15 14:00:00 13 5 Sur 13 Sudoeste 0 -- -- 60
2021-02-15 13:00:00 12 5 Oeste 13 Oeste 0 -- -- 66
2021-02-15 12:00:00 10.5 7 Sudeste 14 Este 0 -- -- 75
2021-02-15 11:00:00 7.8 6 Este 11 Este 0 -- -- 88
2021-02-15 10:00:00 5.7 5 Nordeste 17 Sudeste 0 -- -- 92
2021-02-15 09:00:00 4.7 4 Este 22 Sudeste 0 -- -- 94
2021-02-15 08:00:00 4.5 17 Sudeste 23 Sudeste 0 -- -- 95
2021-02-15 07:00:00 3.3 9 Sudeste 17 Sudeste 0 -- -- 99
2021-02-15 06:00:00 2.6 3 Sur 6 Sudeste 0 -- -- 96
2021-02-15 05:00:00 3.1 4 Este 7 Norte 0 -- -- 96
2021-02-15 04:00:00 3.6 0 Calma 4 Sur 0 -- -- 94
2021-02-15 03:00:00 4.9 3 Sur 11 Sudeste 0 -- -- 91
2021-02-15 02:00:00 6.3 7 Sudeste 15 Sudeste 0 -- -- 91
2021-02-15 01:00:00 5.7 8 Sudeste 12 Sudeste 0 -- -- 94
2021-02-15 00:00:00 5.7 0 Calma 15 Nordeste 0 -- -- 90
2021-02-14 23:00:00 6.9 5 Nordeste 9 Nordeste 0 -- -- 91
2021-02-14 22:00:00 5.6 3 Sudeste 7 Sudeste 0 -- -- 92
2021-02-14 21:00:00 6.9 4 Nordeste 15 Este 0 -- -- 89
2021-02-14 20:00:00 7.6 9 Este 16 Este 0 -- -- 89
2021-02-14 19:00:00 8.1 4 Este 9 Sudeste 0 -- -- 85
2021-02-14 18:00:00 9.9 6 Sudeste 11 Sudeste 0 -- -- 80
2021-02-14 17:00:00 10.7 5 Sur 12 Sudeste 0 -- -- 77
2021-02-14 16:00:00 10.6 5 Sur 13 Sur 0 -- -- 77
2021-02-14 15:00:00 9.5 7 Sur 13 Sur 0 -- -- 85
2021-02-14 14:00:00 8.2 2 Sur 9 Noroeste 0 -- -- 92
2021-02-14 13:00:00 7.3 6 Noroeste 10 Noroeste 0 -- -- 94
2021-02-14 12:00:00 6.6 2 Sur 7 Sudeste 0 -- -- 98
2021-02-14 11:00:00 4.7 4 Oeste 6 Oeste 0 -- -- 98
2021-02-14 10:00:00 2.4 0 Calma 4 Nordeste 0 -- -- 100
2021-02-14 09:00:00 -0.2 4 Este 7 Nordeste 0 -- -- 98
2021-02-14 08:00:00 -0.5 5 Nordeste 8 Nordeste 0 -- -- 97
2021-02-14 07:00:00 -1.1 4 Este 5 Este 0 -- -- 97
2021-02-14 06:00:00 -0.2 4 Nordeste 6 Nordeste 0 -- -- 98
2021-02-14 05:00:00 0 4 Nordeste 9 Nordeste 0 -- -- 98
2021-02-14 04:00:00 -0.5 6 Este 8 Este 0 -- -- 97
2021-02-14 03:00:00 -0.5 4 Nordeste 5 Nordeste 0 -- -- 95
2021-02-14 02:00:00 0.1 4 Nordeste 6 Este 0 -- -- 95
2021-02-14 01:00:00 1.2 2 Este 8 Nordeste 0 -- -- 94
2021-02-14 00:00:00 1.6 5 Este 10 Nordeste 0 -- -- 93
2021-02-13 23:00:00 2.5 4 Este 8 Este 0 -- -- 94
2021-02-13 22:00:00 3.7 0 Calma 7 Este 0 -- -- 91
2021-02-13 21:00:00 5.7 3 Este 13 Sudeste 0 -- -- 87
2021-02-13 20:00:00 8.5 4 Sur 10 Sudoeste 0 -- -- 81
2021-02-13 19:00:00 10 6 Sudoeste 26 Oeste 0 -- -- 76
2021-02-13 18:00:00 12 15 Oeste 26 Oeste 0 -- -- 68
2021-02-13 17:00:00 11.6 12 Oeste 24 Oeste 0 -- -- 68
2021-02-13 16:00:00 12.1 11 Sudoeste 21 Sudoeste 0 -- -- 69
2021-02-13 15:00:00 11.5 9 Sudoeste 21 Sudoeste 0 -- -- 68
2021-02-13 14:00:00 10.6 9 Sudoeste 18 Oeste 0 -- -- 64
2021-02-13 13:00:00 9.3 3 Noroeste 12 Oeste 0 -- -- 69
2021-02-13 08:00:00 -- -- -- -- -- -- -- -- --
2021-02-13 07:00:00 -0.4 2 Este 8 Norte 0 -- -- 97
2021-02-13 06:00:00 -0.7 3 Este 5 Nordeste 0 -- -- 96
2021-02-13 05:00:00 -0.9 3 Este 4 Este 0 -- -- 96
2021-02-13 04:00:00 -0.7 3 Este 5 Norte 0 -- -- 96
2021-02-13 03:00:00 -0.5 0 Calma 5 Este 0 -- -- 96
2021-02-13 02:00:00 -0.5 2 Este 6 Este 0 -- -- 94
2021-02-13 01:00:00 0.7 0 Calma 7 Este 0 -- -- 95
2021-02-13 00:00:00 0.8 2 Nordeste 7 Este 0 -- -- 94
2021-02-12 23:00:00 1.4 5 Nordeste 7 Nordeste 0 -- -- 94
2021-02-12 22:00:00 2.3 3 Sur 4 Sur 0 -- -- 89
2021-02-12 21:00:00 4.3 0 Calma 12 Oeste 0 -- -- 85
2021-02-12 20:00:00 6.8 2 Oeste 13 Oeste 0 -- -- 79
2021-02-12 19:00:00 8.4 6 Sudoeste 9 Sudoeste 0 -- -- 73
2021-02-12 18:00:00 10.5 5 Nordeste 14 Nordeste 0 -- -- 58
2021-02-12 17:00:00 11.3 12 Nordeste 18 Nordeste 0 -- -- 55
2021-02-12 16:00:00 10.9 11 Norte 21 Norte 0 -- -- 59
2021-02-12 15:00:00 12.4 15 Norte 34 Noroeste 0 -- -- 56
2021-02-12 14:00:00 11.7 22 Noroeste 39 Noroeste 0 -- -- 61
2021-02-12 13:00:00 11.1 15 Oeste 27 Noroeste 0 -- -- 69
2021-02-12 12:00:00 9.1 13 Oeste 23 Oeste 0 -- -- 77
2021-02-12 11:00:00 7.6 10 Oeste 16 Oeste 0 -- -- 91
2021-02-12 10:00:00 6 2 Sudoeste 17 Oeste 0 -- -- 96
2021-02-12 09:00:00 5.9 9 Oeste 17 Oeste 0 -- -- 96
2021-02-12 08:00:00 6 6 Sudoeste 17 Oeste 0 -- -- 96
2021-02-12 07:00:00 6.4 6 Sudoeste 17 Sudoeste 0.2 -- -- 97
2021-02-12 06:00:00 6.9 8 Sudoeste 27 Oeste 0.2 -- -- 97
2021-02-12 05:00:00 7.5 8 Oeste 16 Oeste 0.2 -- -- 98
2021-02-12 04:00:00 7.5 5 Sudoeste 18 Sudoeste 0.6 -- -- 97
2021-02-12 03:00:00 8.3 9 Oeste 36 Sudoeste 0.4 -- -- 97
2021-02-12 02:00:00 8.9 25 Sudoeste 46 Sudoeste 0.8 -- -- 97
2021-02-12 01:00:00 8.8 15 Sur 39 Sudoeste 0.4 -- -- 97
2021-02-12 00:00:00 9.1 17 Sur 30 Sur 0 -- -- 98
2021-02-11 23:00:00 9.4 10 Sur 26 Sur 1 -- -- 97
2021-02-11 22:00:00 9.5 12 Sur 26 Sur 0 -- -- 96
2021-02-11 21:00:00 9.6 13 Sudoeste 25 Sur 0.2 -- -- 97
2021-02-11 20:00:00 9.7 10 Sudoeste 22 Sudoeste 0.8 -- -- 97
2021-02-11 19:00:00 9.3 3 Sur 10 Noroeste 0.4 -- -- 95
2021-02-11 18:00:00 10.4 4 Sudoeste 10 Sur 0 -- -- 87
2021-02-11 17:00:00 10.5 3 Oeste 10 Sur 0 -- -- 87
2021-02-11 16:00:00 10.9 5 Oeste 17 Oeste 0 -- -- 82
2021-02-11 15:00:00 10.1 8 Oeste 17 Oeste 0 -- -- 84
2021-02-11 14:00:00 8.4 4 Oeste 13 Sudoeste 0 -- -- 92
2021-02-11 13:00:00 7.2 7 Sudoeste 14 Sudoeste 0 -- -- 97
2021-02-11 12:00:00 5.8 0 Calma 4 Norte 0.2 -- -- 99
2021-02-11 11:00:00 4.9 2 Nordeste 8 Nordeste 0 -- -- 98
2021-02-11 10:00:00 4.4 4 Nordeste 6 Nordeste 0 -- -- 97
2021-02-11 09:00:00 4.4 2 Sur 4 Este 0 -- -- 96
2021-02-11 08:00:00 4.2 2 Norte 5 Norte 0 -- -- 95
2021-02-11 07:00:00 4.2 0 Calma 9 Sudeste 0 -- -- 94
2021-02-11 06:00:00 4.1 0 Calma 4 Sudeste 0 -- -- 95
2021-02-11 05:00:00 3.8 3 Este 3 Este 0 -- -- 95
2021-02-11 04:00:00 3.9 2 Sudeste 6 Nordeste 0 -- -- 93
2021-02-11 03:00:00 3.6 4 Nordeste 6 Nordeste 0 -- -- 94
2021-02-11 02:00:00 3.1 0 Calma 4 Sudoeste 0 -- -- 95
2021-02-11 01:00:00 2.4 0 Calma 4 Este 0 -- -- 93
2021-02-11 00:00:00 2.9 3 Nordeste 5 Nordeste 0 -- -- 90
2021-02-10 23:00:00 2.7 0 Calma 5 Este 0 -- -- 90
2021-02-10 22:00:00 2.4 0 Calma 7 Sur 0 -- -- 85
2021-02-10 21:00:00 4.5 4 Sudoeste 15 Oeste 0 -- -- 76
2021-02-10 20:00:00 5.2 5 Sur 9 Sur 0 -- -- 76
2021-02-10 19:00:00 5.8 7 Sudoeste 14 Sudoeste 0 -- -- 75
2021-02-10 18:00:00 7.1 6 Sudoeste 20 Sudoeste 0 -- -- 73
2021-02-10 17:00:00 8.6 12 Oeste 23 Oeste 0 -- -- 67
2021-02-10 16:00:00 8.9 11 Oeste 27 Sudoeste 0.2 -- -- 68
2021-02-10 15:00:00 8.9 11 Oeste 27 Sudoeste 0 -- -- 65
2021-02-10 14:00:00 8 14 Oeste 27 Sudoeste 0 -- -- 71
2021-02-10 13:00:00 6.5 18 Oeste 30 Oeste 0 -- -- 73
2021-02-10 12:00:00 5.5 17 Oeste 27 Oeste 0 -- -- 77
2021-02-10 11:00:00 4.1 13 Oeste 23 Sudoeste 0 -- -- 82
2021-02-10 10:00:00 2.1 9 Oeste 22 Oeste 0 -- -- 93
2021-02-10 09:00:00 0.5 11 Oeste 21 Oeste 0 -- -- 96
2021-02-10 08:00:00 0 3 Este 16 Oeste 0 -- -- 96
2021-02-10 07:00:00 0.4 6 Oeste 16 Sudoeste 0 -- -- 97
2021-02-10 06:00:00 0.8 7 Sudoeste 22 Sudoeste 0 -- -- 96
2021-02-10 05:00:00 0.6 9 Sudoeste 20 Noroeste 0 -- -- 96
2021-02-10 04:00:00 1.1 15 Oeste 28 Oeste 0 -- -- 97
2021-02-10 03:00:00 1.7 13 Sudoeste 31 Sudoeste 2.2 -- -- 97
2021-02-10 02:00:00 2.8 10 Sudoeste 27 Sudoeste 0.2 -- -- 97
2021-02-10 01:00:00 2.4 8 Sudoeste 15 Sudoeste 0 -- -- 97
2021-02-10 00:00:00 2 7 Sudoeste 20 Sudoeste 0 -- -- 97
2021-02-09 23:00:00 1.7 9 Sudoeste 22 Sudoeste 0 -- -- 97
2021-02-09 22:00:00 1.6 12 Sudoeste 39 Oeste 0.2 -- -- 96
2021-02-09 21:00:00 2.2 21 Sudoeste 38 Sudoeste 0 -- -- 95
2021-02-09 20:00:00 2.9 19 Sudoeste 37 Sudoeste 0 -- -- 92
2021-02-09 19:00:00 3.6 15 Sudoeste 26 Sudoeste 0 -- -- 90
2021-02-09 18:00:00 4.2 15 Sudoeste 32 Sudoeste 0 -- -- 87
2021-02-09 17:00:00 4.6 18 Sudoeste 32 Sudoeste 0 -- -- 87
2021-02-09 16:00:00 5.1 14 Sudoeste 34 Oeste 0 -- -- 87
2021-02-09 15:00:00 4.7 19 Sudoeste 30 Oeste 0 -- -- 89
2021-02-09 14:00:00 3.6 13 Oeste 25 Oeste 0 -- -- 91
2021-02-09 13:00:00 3.1 14 Sudoeste 48 Oeste 0.4 -- -- 88
2021-02-09 12:00:00 3.6 15 Oeste 53 Sudoeste 2.8 -- -- 96
2021-02-09 11:00:00 5.3 26 Sudoeste 54 Sudoeste 1.4 -- -- 96
2021-02-09 10:00:00 5.3 24 Sudoeste 42 Sudoeste 0.4 -- -- 96
2021-02-09 09:00:00 5.1 23 Sudoeste 41 Sur 0.2 -- -- 97
2021-02-09 08:00:00 4.7 18 Sudoeste 39 Sur 0.2 -- -- 98
2021-02-09 07:00:00 4.2 18 Sudoeste 35 Sudoeste 0 -- -- 98
2021-02-09 06:00:00 3.8 17 Sur 39 Sudoeste 0 -- -- 98
2021-02-09 05:00:00 3.5 18 Sur 33 Sudoeste 0.2 -- -- 97
2021-02-09 04:00:00 3.4 16 Sudoeste 33 Sudoeste 0.4 -- -- 96
2021-02-09 03:00:00 3.9 15 Sudoeste 30 Sudoeste 1.2 -- -- 97
2021-02-09 02:00:00 4.1 14 Sudoeste 24 Sudoeste 0 -- -- 95
2021-02-09 01:00:00 4.2 10 Sudoeste 18 Oeste 0 -- -- 96
2021-02-09 00:00:00 3.9 8 Sudoeste 16 Sudoeste 0 -- -- 96
2021-02-08 23:00:00 3.6 6 Sudoeste 10 Sudoeste 0 -- -- 95
2021-02-08 22:00:00 3.5 7 Sudoeste 13 Oeste 0 -- -- 94
2021-02-08 21:00:00 3.2 6 Oeste 16 Sudoeste 0 -- -- 92
2021-02-08 20:00:00 3.3 5 Oeste 19 Oeste 0 -- -- 91
2021-02-08 19:00:00 4.3 12 Oeste 30 Oeste 0 -- -- 87
2021-02-08 18:00:00 5.4 17 Oeste 34 Oeste 0 -- -- 83
2021-02-08 17:00:00 6.1 19 Oeste 36 Oeste 0 -- -- 79
2021-02-08 16:00:00 6.2 14 Oeste 27 Oeste 0 -- -- 86
2021-02-08 15:00:00 5.5 12 Oeste 25 Sudoeste 0.2 -- -- 92
2021-02-08 14:00:00 4.8 9 Noroeste 27 Oeste 1 -- -- 93
2021-02-08 13:00:00 5.7 9 Sudoeste 26 Oeste 0 -- -- 90
2021-02-08 12:00:00 3.9 6 Oeste 23 Oeste 0 -- -- 99
2021-02-08 11:00:00 3.2 10 Oeste 18 Sudoeste 0 -- -- 99
2021-02-08 10:00:00 2.4 8 Sudoeste 13 Sudoeste 0 -- -- 100
2021-02-08 09:00:00 1.5 2 Sur 7 Sudoeste 0.2 -- -- 99
2021-02-08 08:00:00 2.1 4 Oeste 14 Oeste 0 -- -- 98
2021-02-08 07:00:00 2.1 4 Sudoeste 10 Sudoeste 0 -- -- 98
2021-02-08 06:00:00 3.2 4 Sudoeste 10 Sudoeste 0 -- -- 98
2021-02-08 05:00:00 3.2 0 Calma 19 Oeste 0 -- -- 99
2021-02-08 04:00:00 3.8 3 Oeste 8 Oeste 0 -- -- 98
2021-02-08 03:00:00 4.2 5 Sudoeste 19 Sudoeste 0 -- -- 98
2021-02-08 02:00:00 3.8 6 Sudoeste 23 Sudoeste 1.6 -- -- 98
2021-02-08 01:00:00 3.6 10 Sur 20 Sur 1.4 -- -- 98
2021-02-08 00:00:00 3.1 4 Sudoeste 12 Sudoeste 0.6 -- -- 98
2021-02-07 23:00:00 2.9 6 Sudoeste 18 Sudoeste 0.2 -- -- 97
2021-02-07 22:00:00 2.8 9 Sudoeste 16 Sudoeste 0 -- -- 96
2021-02-07 21:00:00 2.7 7 Sudoeste 15 Sudoeste 0.2 -- -- 96
2021-02-07 20:00:00 2.7 2 Sudoeste 10 Sudoeste 0 -- -- 96
2021-02-07 19:00:00 2.7 2 Sudoeste 8 Sudoeste 0.2 -- -- 93
2021-02-07 18:00:00 2.8 3 Sudoeste 9 Oeste 0 -- -- 90
2021-02-07 17:00:00 3 3 Sudoeste 11 Sudoeste 0 -- -- 89
2021-02-07 16:00:00 2.8 6 Oeste 18 Sudoeste 0.2 -- -- 89
2021-02-07 15:00:00 3 10 Oeste 20 Oeste 0 -- -- 82
2021-02-07 14:00:00 2.9 8 Sudoeste 25 Oeste 0 -- -- 82
2021-02-07 13:00:00 2.7 13 Oeste 21 Sudoeste 0 -- -- 79
2021-02-07 12:00:00 1.1 4 Sudoeste 8 Oeste 0 -- -- 81
2021-02-07 11:00:00 0 0 Calma 5 Norte 0 -- -- 89
2021-02-07 10:00:00 -1.9 0 Calma 4 Sudoeste 0 -- -- 95
2021-02-07 09:00:00 -3.4 0 Calma 4 Nordeste 0 -- -- 96
2021-02-07 08:00:00 -4.1 0 Calma 6 Nordeste 0 -- -- 95
2021-02-07 07:00:00 -5 3 Este 5 Este 0 -- -- 94
2021-02-07 06:00:00 -5.1 0 Calma 3 Este 0 -- -- 94
2021-02-07 05:00:00 -4.2 0 Calma 3 Sudoeste 0 -- -- 93
2021-02-07 04:00:00 -3.8 2 Este 8 Nordeste 0 -- -- 93
2021-02-07 03:00:00 -3.8 0 Calma 4 Este 0 -- -- 93
2021-02-07 02:00:00 -3.3 0 Calma 4 Este 0 -- -- 94
2021-02-07 01:00:00 -3.1 0 Calma 4 Oeste 0 -- -- 92
2021-02-07 00:00:00 -1.5 0 Calma 10 Este 0 -- -- 89
2021-02-06 23:00:00 -1.4 5 Este 6 Este 0 -- -- 88
2021-02-06 22:00:00 0 5 Este 9 Nordeste 0 -- -- 87
2021-02-06 21:00:00 1.5 7 Nordeste 21 Norte 0 -- -- 81
2021-02-06 20:00:00 2.6 9 Norte 27 Norte 0 -- -- 75
2021-02-06 19:00:00 4.1 14 Norte 29 Norte 0 -- -- 70
2021-02-06 18:00:00 5.7 15 Norte 31 Norte 0 -- -- 67
2021-02-06 17:00:00 6.4 15 Norte 28 Norte 0 -- -- 67
2021-02-06 16:00:00 7 13 Norte 28 Norte 0 -- -- 65
2021-02-06 15:00:00 6.9 16 Norte 27 Norte 0 -- -- 69
2021-02-06 14:00:00 6.4 15 Norte 33 Nordeste 0 -- -- 74
2021-02-06 13:00:00 6.1 18 Norte 27 Norte 0 -- -- 78
2021-02-06 12:00:00 5 8 Norte 17 Norte 0 -- -- 84
2021-02-06 11:00:00 4.4 11 Norte 20 Norte 0.2 -- -- 87
2021-02-06 10:00:00 4.2 11 Norte 19 Norte 0 -- -- 88
2021-02-06 09:00:00 4.1 6 Norte 12 Norte 0.2 -- -- 92
2021-02-06 08:00:00 4.2 5 Norte 16 Nordeste 0.4 -- -- 94
2021-02-06 07:00:00 4.4 4 Norte 16 Nordeste 1.2 -- -- 93
2021-02-06 06:00:00 4.6 5 Nordeste 14 Norte 0.4 -- -- 93
2021-02-06 05:00:00 4.6 8 Norte 14 Norte 0.8 -- -- 94
2021-02-06 04:00:00 5 5 Nordeste 19 Nordeste 1 -- -- 93
2021-02-06 03:00:00 5.5 13 Norte 23 Norte 0 -- -- 92
2021-02-06 02:00:00 6.1 9 Nordeste 24 Este 1 -- -- 93
2021-02-06 01:00:00 6 8 Nordeste 22 Nordeste 0 -- -- 92
2021-02-06 00:00:00 6.7 13 Nordeste 22 Nordeste 0 -- -- 89
2021-02-05 23:00:00 6.9 11 Nordeste 22 Nordeste 0.2 -- -- 93
2021-02-05 22:00:00 7.2 14 Este 24 Este 0.8 -- -- 93
2021-02-05 21:00:00 7.1 12 Nordeste 22 Nordeste 0 -- -- 88
2021-02-05 20:00:00 6.6 7 Nordeste 13 Nordeste 0 -- -- 90
2021-02-05 19:00:00 7 6 Norte 14 Nordeste 0 -- -- 92
2021-02-05 18:00:00 7.7 8 Nordeste 18 Nordeste 0 -- -- 91
2021-02-05 17:00:00 7.7 11 Nordeste 15 Nordeste 0 -- -- 88
2021-02-05 16:00:00 7.9 7 Nordeste 18 Norte 0 -- -- 92
2021-02-05 15:00:00 7.8 8 Norte 15 Nordeste 0 -- -- 95
2021-02-05 14:00:00 7.4 10 Nordeste 20 Este 0.8 -- -- 95
2021-02-05 13:00:00 7 9 Este 21 Sudeste 2.4 -- -- 97
2021-02-05 12:00:00 6.7 15 Sudeste 26 Sudeste 0.6 -- -- 96
2021-02-05 11:00:00 6.1 8 Este 16 Este 1.4 -- -- 97
2021-02-05 10:00:00 5.4 6 Nordeste 15 Nordeste 0.2 -- -- 96
2021-02-05 09:00:00 4.9 12 Nordeste 16 Nordeste 0.2 -- -- 97
2021-02-05 08:00:00 4.6 7 Nordeste 13 Nordeste 1.2 -- -- 97
2021-02-05 07:00:00 4.5 5 Nordeste 12 Nordeste 0.2 -- -- 97
2021-02-05 06:00:00 4.2 8 Nordeste 10 Nordeste 0 -- -- 98
2021-02-05 05:00:00 4.3 4 Nordeste 7 Nordeste 0.2 -- -- 98
2021-02-05 04:00:00 4.3 3 Este 9 Nordeste 0.2 -- -- 98
2021-02-05 03:00:00 4.3 6 Nordeste 9 Nordeste 0.2 -- -- 98
2021-02-05 02:00:00 4.4 3 Norte 8 Norte 0 -- -- 98
2021-02-05 01:00:00 4.4 3 Nordeste 5 Nordeste 0 -- -- 98
2021-02-05 00:00:00 4.6 4 Este 6 Este 0.2 -- -- 97
2021-02-04 23:00:00 4.6 4 Este 6 Este 0.4 -- -- 97
2021-02-04 22:00:00 4.7 2 Noroeste 5 Noroeste 0.4 -- -- 97
2021-02-04 21:00:00 4.7 0 Calma 5 Sudoeste 1 -- -- 97
2021-02-04 20:00:00 4.9 0 Calma 3 Este 0 -- -- 96
2021-02-04 19:00:00 5 3 Este 4 Este 0.4 -- -- 95
2021-02-04 18:00:00 5.3 2 Este 8 Este 0.4 -- -- 93
2021-02-04 17:00:00 5.5 5 Este 9 Nordeste 0 -- -- 88
2021-02-04 16:00:00 5.4 4 Nordeste 6 Nordeste 0.4 -- -- 88
2021-02-04 15:00:00 5.4 0 Calma 4 Nordeste 1 -- -- 86
2021-02-04 14:00:00 5.7 3 Noroeste 8 Noroeste 0.8 -- -- 85
2021-02-04 13:00:00 6.7 3 Sudoeste 8 Sudeste 0 -- -- 90
2021-02-04 12:00:00 6.7 0 Calma 8 Sudeste 0 -- -- 90
2021-02-04 11:00:00 6 5 Este 12 Este 0 -- -- 96
2021-02-04 10:00:00 5.5 6 Sudeste 9 Sudeste 0 -- -- 98
2021-02-04 09:00:00 5 2 Sur 8 Sur 0 -- -- 97
2021-02-04 08:00:00 4.8 3 Sudoeste 12 Sur 0 -- -- 97
2021-02-04 07:00:00 4.7 5 Sudeste 19 Sur 0 -- -- 97
2021-02-04 06:00:00 4.6 7 Sur 17 Sudeste 0 -- -- 96
2021-02-04 05:00:00 4.1 7 Sudeste 9 Sudeste 0 -- -- 96
2021-02-04 04:00:00 4.8 8 Sur 15 Sudeste 0 -- -- 96
2021-02-04 03:00:00 4.9 6 Sur 15 Sur 0 -- -- 97
2021-02-04 02:00:00 4.9 6 Sur 20 Sur 0 -- -- 94
2021-02-04 01:00:00 5.5 11 Sur 25 Sur 0 -- -- 94
2021-02-04 00:00:00 5.7 12 Sur 23 Sur 0 -- -- 95
2021-02-03 23:00:00 6.1 0 Calma 15 Sur 0 -- -- 95
2021-02-03 22:00:00 6.5 8 Sudoeste 18 Sudoeste 0 -- -- 94
2021-02-03 21:00:00 6.4 6 Sudoeste 14 Sur 0 -- -- 88
2021-02-03 20:00:00 6.9 3 Sudoeste 10 Sudoeste 0 -- -- 79
2021-02-03 19:00:00 8.8 7 Sudoeste 22 Sudoeste 0 -- -- 71
2021-02-03 18:00:00 10.1 11 Sudoeste 30 Sur 0 -- -- 63
2021-02-03 17:00:00 11.1 15 Sudoeste 37 Sudoeste 0 -- -- 60
2021-02-03 16:00:00 11.5 19 Sudoeste 43 Sudoeste 0 -- -- 59
2021-02-03 15:00:00 11.3 19 Sudoeste 42 Sudoeste 0 -- -- 59
2021-02-03 14:00:00 9.9 18 Sudoeste 33 Oeste 0 -- -- 67
2021-02-03 13:00:00 9.8 20 Sudoeste 39 Sudoeste 0 -- -- 70
2021-02-03 12:00:00 8.9 20 Sudoeste 35 Sudoeste 0.2 -- -- 74
2021-02-03 11:00:00 7.5 16 Sudoeste 32 Oeste 0 -- -- 82
2021-02-03 10:00:00 7.2 7 Sudoeste 15 Oeste 0 -- -- 96
2021-02-03 09:00:00 6.2 6 Sudoeste 14 Sudoeste 0 -- -- 95
2021-02-03 08:00:00 6.6 5 Sudoeste 30 Sudoeste 0.4 -- -- 96
2021-02-03 07:00:00 7.6 17 Sudoeste 33 Sudoeste 0 -- -- 97
2021-02-03 06:00:00 7.8 16 Sudoeste 41 Sudoeste 1.6 -- -- 98
2021-02-03 05:00:00 7.8 21 Sudoeste 48 Sudoeste 0 -- -- 97
2021-02-03 04:00:00 7.8 22 Sudoeste 49 Sudoeste 0 -- -- 97
2021-02-03 03:00:00 7.6 22 Sudoeste 42 Sudoeste 0.4 -- -- 98
2021-02-03 02:00:00 7.3 20 Sur 38 Sur 0.2 -- -- 98
2021-02-03 01:00:00 7.3 22 Sur 44 Sur 0 -- -- 97
2021-02-03 00:00:00 7.4 21 Sur 37 Sur 0 -- -- 97
2021-02-02 23:00:00 7.6 19 Sur 37 Sur 0.2 -- -- 97
2021-02-02 22:00:00 7.6 17 Sur 32 Sur 0.2 -- -- 97
2021-02-02 21:00:00 7.7 17 Sur 33 Sur 0 -- -- 97
2021-02-02 20:00:00 7.8 15 Sudoeste 30 Sudoeste 0 -- -- 97
2021-02-02 19:00:00 7.8 17 Sudoeste 37 Sudoeste 0.8 -- -- 96
2021-02-02 18:00:00 8 12 Sudoeste 28 Sudoeste 0.4 -- -- 96
2021-02-02 17:00:00 8.6 13 Sudoeste 29 Sudoeste 0 -- -- 92
2021-02-02 16:00:00 9 10 Sudoeste 28 Sur 0 -- -- 92
2021-02-02 15:00:00 8.8 9 Sur 25 Sudoeste 0.4 -- -- 96
2021-02-02 14:00:00 8.2 4 Sudoeste 26 Oeste 2 -- -- 95
2021-02-02 13:00:00 8.7 12 Sudoeste 28 Sudoeste 0 -- -- 88
2021-02-02 12:00:00 8.5 12 Sudoeste 28 Sudoeste 0 -- -- 90
2021-02-02 11:00:00 8.1 13 Sudoeste 23 Sudoeste 0 -- -- 92
2021-02-02 10:00:00 7.3 8 Sudoeste 17 Sudoeste 0 -- -- 95
2021-02-02 09:00:00 7 5 Sur 15 Sur 0 -- -- 96
2021-02-02 08:00:00 7 5 Sudoeste 13 Sudoeste 0 -- -- 96
2021-02-02 07:00:00 7.4 7 Sudoeste 16 Sudoeste 0 -- -- 95
2021-02-02 06:00:00 8.1 10 Sudoeste 21 Sudoeste 0 -- -- 95
2021-02-02 05:00:00 8.3 11 Oeste 24 Oeste 0 -- -- 97
2021-02-02 04:00:00 8.2 13 Sudoeste 22 Sudoeste 0 -- -- 97
2021-02-02 03:00:00 8.1 14 Sudoeste 25 Sudoeste 0 -- -- 97
2021-02-02 02:00:00 8 14 Sudoeste 27 Oeste 0 -- -- 97
2021-02-02 01:00:00 8 12 Sudoeste 23 Sudoeste 0 -- -- 95
2021-02-02 00:00:00 7.8 10 Sudoeste 18 Sudoeste 0 -- -- 94
2021-02-01 23:00:00 8.2 10 Sudoeste 28 Sudoeste 0 -- -- 92
2021-02-01 22:00:00 8.5 12 Sudoeste 28 Sudoeste 0 -- -- 88
2021-02-01 21:00:00 9.3 15 Sudoeste 26 Sudoeste 0 -- -- 83
2021-02-01 20:00:00 10.1 15 Sudoeste 29 Sudoeste 0 -- -- 76
2021-02-01 19:00:00 9.7 8 Sudoeste 37 Oeste 0 -- -- 74
2021-02-01 18:00:00 10.8 19 Oeste 39 Oeste 0 -- -- 73
2021-02-01 17:00:00 12.2 23 Oeste 47 Oeste 0 -- -- 66
2021-02-01 16:00:00 11.3 21 Oeste 39 Sudoeste 0 -- -- 71
2021-02-01 15:00:00 11.8 26 Oeste 46 Sudoeste 0 -- -- 69
2021-02-01 14:00:00 11.2 23 Oeste 41 Sudoeste 0 -- -- 71
2021-02-01 13:00:00 11.8 22 Oeste 43 Sudoeste 0 -- -- 72
2021-02-01 12:00:00 11.1 23 Sudoeste 37 Sudoeste 0 -- -- 75
2021-02-01 11:00:00 9.9 18 Sudoeste 32 Oeste 0 -- -- 79
2021-02-01 10:00:00 8 18 Oeste 33 Oeste 0 -- -- 84
2021-02-01 09:00:00 6.7 17 Oeste 34 Sudoeste 0 -- -- 84
2021-02-01 08:00:00 6.6 19 Oeste 37 Sudoeste 0 -- -- 82
2021-02-01 07:00:00 6.6 19 Oeste 36 Oeste 0 -- -- 81
2021-02-01 06:00:00 6.8 22 Oeste 36 Oeste 0 -- -- 81
2021-02-01 05:00:00 6.7 12 Sudoeste 22 Sudoeste 0 -- -- 79
2021-02-01 04:00:00 7 3 Sudoeste 49 Oeste 0 -- -- 76
2021-02-01 03:00:00 7.5 24 Oeste 46 Sudoeste 0 -- -- 76
2021-02-01 02:00:00 7.4 28 Oeste 52 Oeste 0 -- -- 79
2021-02-01 01:00:00 7.5 26 Oeste 48 Oeste 0 -- -- 77
2021-02-01 00:00:00 8.1 30 Oeste 57 Oeste 0 -- -- 73
2021-01-31 23:00:00 8.6 30 Oeste 53 Oeste 0 -- -- 77
2021-01-31 22:00:00 9 28 Oeste 57 Oeste 0 -- -- 77
2021-01-31 21:00:00 9.4 29 Oeste 52 Oeste 0 -- -- 77
2021-01-31 20:00:00 9.8 32 Oeste 60 Oeste 0 -- -- 76
2021-01-31 19:00:00 10.7 22 Oeste 39 Oeste 0 -- -- 69
2021-01-31 18:00:00 12.7 22 Oeste 40 Oeste 0 -- -- 62
2021-01-31 17:00:00 12.9 24 Oeste 50 Oeste 0 -- -- 62
2021-01-31 16:00:00 12.5 30 Oeste 68 Oeste 0 -- -- 64
2021-01-31 15:00:00 12.2 24 Oeste 54 Oeste 0 -- -- 67
2021-01-31 14:00:00 13 26 Oeste 50 Oeste 0 -- -- 69
2021-01-31 13:00:00 12.1 20 Oeste 37 Oeste 0 -- -- 76
2021-01-31 12:00:00 9.6 14 Oeste 32 Oeste 0 -- -- 85
2021-01-31 11:00:00 7.9 12 Oeste 20 Oeste 0 -- -- 88
2021-01-31 10:00:00 6.5 9 Sudoeste 29 Oeste 0 -- -- 90
2021-01-31 09:00:00 5.1 13 Oeste 28 Sudoeste 0 -- -- 91
2021-01-31 08:00:00 4.3 8 Sudoeste 24 Sudoeste 0 -- -- 89
2021-01-31 07:00:00 4.5 13 Sudoeste 26 Oeste 0 -- -- 85
2021-01-31 06:00:00 3.2 10 Sudoeste 22 Oeste 0 -- -- 88
2021-01-31 05:00:00 3.1 6 Sudoeste 15 Oeste 0 -- -- 84
2021-01-31 04:00:00 3.5 0 Calma 26 Noroeste 0 -- -- 81
2021-01-31 03:00:00 4.2 14 Oeste 27 Noroeste 0 -- -- 80
2021-01-31 02:00:00 3 11 Oeste 21 Sudoeste 0 -- -- 90
2021-01-31 01:00:00 2.8 7 Oeste 27 Oeste 0 -- -- 88
2021-01-31 00:00:00 3.3 16 Oeste 33 Oeste 0 -- -- 86